This is the latest recevied weather packets stored in our database for station/object HS3MXC-2. If no packets are shown the sender has not sent any weather packets the latest 10 day(s).
| Time | Temp. | Humidity | Pressure | Rain* | Wind** | Luminosity | Snow |
|---|---|---|---|---|---|---|---|
| 1777958423 | 30.56° C | 61% | 997 hPa | - | - | - | - |
| 1777958117 | 30.56° C | 58% | 997.1 hPa | - | - | - | - |
| 1777957810 | 29.44° C | 63% | 997.1 hPa | - | - | - | - |
| 1777957501 | 26.67° C | 40% | 997.1 hPa | - | - | - | - |
| 1777957195 | 26.11° C | 41% | 997.1 hPa | - | - | - | - |
| 1777956270 | 26.67° C | 43% | 997.5 hPa | - | - | - | - |
| 1777955962 | 26.11° C | 43% | 997.6 hPa | - | - | - | - |
| 1777955652 | 26.11° C | 43% | 997.8 hPa | - | - | - | - |
| 1777955035 | 25.56° C | 40% | 997.9 hPa | - | - | - | - |
| 1777954727 | 25.56° C | 40% | 998 hPa | - | - | - | - |
| 1777954420 | 25.56° C | 40% | 998 hPa | - | - | - | - |
| 1777953805 | 25.56° C | 41% | 998.1 hPa | - | - | - | - |
| 1777952878 | 25° C | 41% | 998.2 hPa | - | - | - | - |
| 1777952572 | 25° C | 42% | 998.2 hPa | - | - | - | - |
| 1777951954 | 25° C | 45% | 998.3 hPa | - | - | - | - |
| 1777951339 | 23.89° C | 48% | 998.3 hPa | - | - | - | - |
| 1777951032 | 24.44° C | 50% | 998.3 hPa | - | - | - | - |
| 1777950419 | 24.44° C | 50% | 998.4 hPa | - | - | - | - |
| 1777949180 | 26.11° C | 54% | 998.3 hPa | - | - | - | - |
| 1777948864 | 26.11° C | 53% | 998.3 hPa | - | - | - | - |
| 1777948553 | 26.11° C | 55% | 998.3 hPa | - | - | - | - |
| 1777948247 | 25.56° C | 56% | 998.3 hPa | - | - | - | - |
| 1777947625 | 26.11° C | 61% | 998.5 hPa | - | - | - | - |
| 1777947316 | 25.56° C | 60% | 998.5 hPa | - | - | - | - |
| 1777947005 | 25° C | 53% | 998.5 hPa | - | - | - | - |
* Rain since midnight (hover to see other rain measurements)
** Current wind speed in m/s (hover to see current wind gust speed)